sensor_id;sensor_type;location;lat;lon;timestamp;pressure;altitude;pressure_sealevel;temperature;humidity
15568;BME280;7885;42.596;23.044;2023-04-09T00:01:40;93124.97;;;7.02;100.00
15568;BME280;7885;42.596;23.044;2023-04-09T00:04:07;93120.63;;;6.94;100.00
15568;BME280;7885;42.596;23.044;2023-04-09T00:06:34;93116.38;;;6.93;100.00
15568;BME280;7885;42.596;23.044;2023-04-09T00:09:01;93110.44;;;6.84;100.00
15568;BME280;7885;42.596;23.044;2023-04-09T00:11:28;93122.38;;;6.83;100.00
15568;BME280;7885;42.596;23.044;2023-04-09T00:13:56;93122.38;;;6.83;100.00
15568;BME280;7885;42.596;23.044;2023-04-09T00:16:23;93125.81;;;6.80;100.00
15568;BME280;7885;42.596;23.044;2023-04-09T00:18:51;93115.34;;;6.75;100.00
15568;BME280;7885;42.596;23.044;2023-04-09T00:21:18;93120.41;;;6.80;100.00
15568;BME280;7885;42.596;23.044;2023-04-09T00:23:45;93127.44;;;6.84;100.00
15568;BME280;7885;42.596;23.044;2023-04-09T00:26:12;93127.78;;;6.83;100.00
15568;BME280;7885;42.596;23.044;2023-04-09T00:28:39;93121.31;;;6.87;100.00
15568;BME280;7885;42.596;23.044;2023-04-09T00:31:06;93122.09;;;6.88;100.00
15568;BME280;7885;42.596;23.044;2023-04-09T00:33:34;93129.91;;;6.93;100.00
15568;BME280;7885;42.596;23.044;2023-04-09T00:36:02;93134.56;;;6.96;100.00
15568;BME280;7885;42.596;23.044;2023-04-09T00:38:29;93143.81;;;6.95;100.00
15568;BME280;7885;42.596;23.044;2023-04-09T00:40:56;93127.50;;;6.88;100.00
15568;BME280;7885;42.596;23.044;2023-04-09T00:43:23;93131.03;;;6.92;100.00
15568;BME280;7885;42.596;23.044;2023-04-09T00:45:49;93136.84;;;6.94;100.00
15568;BME280;7885;42.596;23.044;2023-04-09T00:48:16;93124.00;;;6.87;100.00
15568;BME280;7885;42.596;23.044;2023-04-09T00:50:43;93130.97;;;6.88;100.00
15568;BME280;7885;42.596;23.044;2023-04-09T00:53:13;93125.56;;;6.88;100.00
15568;BME280;7885;42.596;23.044;2023-04-09T00:55:40;93143.88;;;6.98;100.00
15568;BME280;7885;42.596;23.044;2023-04-09T00:58:07;93138.06;;;7.00;100.00
15568;BME280;7885;42.596;23.044;2023-04-09T01:00:34;93133.50;;;7.04;100.00
15568;BME280;7885;42.596;23.044;2023-04-09T01:03:02;93135.84;;;7.05;100.00
15568;BME280;7885;42.596;23.044;2023-04-09T01:05:36;93132.75;;;7.07;100.00
15568;BME280;7885;42.596;23.044;2023-04-09T01:08:09;93133.19;;;7.09;100.00
15568;BME280;7885;42.596;23.044;2023-04-09T01:10:42;93135.22;;;7.16;100.00
15568;BME280;7885;42.596;23.044;2023-04-09T01:13:16;93142.94;;;7.17;100.00
15568;BME280;7885;42.596;23.044;2023-04-09T01:15:48;93127.50;;;7.18;100.00
15568;BME280;7885;42.596;23.044;2023-04-09T01:18:22;93129.00;;;7.15;100.00
15568;BME280;7885;42.596;23.044;2023-04-09T01:20:56;93130.66;;;7.23;100.00
15568;BME280;7885;42.596;23.044;2023-04-09T01:23:34;93134.91;;;7.24;100.00
15568;BME280;7885;42.596;23.044;2023-04-09T01:26:09;93132.22;;;7.24;100.00
15568;BME280;7885;42.596;23.044;2023-04-09T01:28:42;93136.09;;;7.23;100.00
15568;BME280;7885;42.596;23.044;2023-04-09T01:31:12;93134.16;;;7.24;100.00
15568;BME280;7885;42.596;23.044;2023-04-09T01:33:40;93134.56;;;7.26;100.00
15568;BME280;7885;42.596;23.044;2023-04-09T01:36:08;93124.91;;;7.28;100.00
15568;BME280;7885;42.596;23.044;2023-04-09T01:38:36;93130.66;;;7.23;100.00
15568;BME280;7885;42.596;23.044;2023-04-09T01:41:05;93139.19;;;7.25;100.00
15568;BME280;7885;42.596;23.044;2023-04-09T01:43:33;93129.06;;;7.19;100.00
15568;BME280;7885;42.596;23.044;2023-04-09T01:46:02;93133.78;;;7.25;100.00
15568;BME280;7885;42.596;23.044;2023-04-09T01:48:30;93133.81;;;7.29;100.00
15568;BME280;7885;42.596;23.044;2023-04-09T01:50:58;93128.78;;;7.27;100.00
15568;BME280;7885;42.596;23.044;2023-04-09T01:53:25;93135.78;;;7.32;100.00
15568;BME280;7885;42.596;23.044;2023-04-09T01:55:53;93132.31;;;7.31;100.00
15568;BME280;7885;42.596;23.044;2023-04-09T01:58:20;93131.50;;;7.27;100.00
15568;BME280;7885;42.596;23.044;2023-04-09T02:00:47;93136.19;;;7.30;100.00
15568;BME280;7885;42.596;23.044;2023-04-09T02:03:21;93129.19;;;7.29;100.00
15568;BME280;7885;42.596;23.044;2023-04-09T02:05:56;93117.13;;;7.23;100.00
15568;BME280;7885;42.596;23.044;2023-04-09T02:08:27;93128.06;;;7.30;100.00
15568;BME280;7885;42.596;23.044;2023-04-09T02:10:57;93128.41;;;7.29;100.00
15568;BME280;7885;42.596;23.044;2023-04-09T02:13:27;93128.41;;;7.29;100.00
15568;BME280;7885;42.596;23.044;2023-04-09T02:15:57;93125.25;;;7.23;100.00
15568;BME280;7885;42.596;23.044;2023-04-09T02:18:27;93118.28;;;7.22;100.00
15568;BME280;7885;42.596;23.044;2023-04-09T02:20:55;93115.56;;;7.22;100.00
15568;BME280;7885;42.596;23.044;2023-04-09T02:23:23;93124.59;;;7.33;100.00
15568;BME280;7885;42.596;23.044;2023-04-09T02:25:50;93133.47;;;7.30;100.00
15568;BME280;7885;42.596;23.044;2023-04-09T02:28:17;93115.25;;;7.27;100.00
15568;BME280;7885;42.596;23.044;2023-04-09T02:30:44;93121.06;;;7.29;100.00
15568;BME280;7885;42.596;23.044;2023-04-09T02:33:11;93126.50;;;7.29;100.00
15568;BME280;7885;42.596;23.044;2023-04-09T02:35:39;93127.28;;;7.30;100.00
15568;BME280;7885;42.596;23.044;2023-04-09T02:38:07;93126.88;;;7.31;100.00
15568;BME280;7885;42.596;23.044;2023-04-09T02:40:38;93122.63;;;7.30;100.00
15568;BME280;7885;42.596;23.044;2023-04-09T02:43:05;93121.84;;;7.30;100.00
15568;BME280;7885;42.596;23.044;2023-04-09T02:45:31;93103.59;;;7.23;100.00
15568;BME280;7885;42.596;23.044;2023-04-09T02:47:58;93125.75;;;7.32;100.00
15568;BME280;7885;42.596;23.044;2023-04-09T02:50:25;93113.22;;;7.21;100.00
15568;BME280;7885;42.596;23.044;2023-04-09T02:52:53;93110.91;;;7.19;100.00
15568;BME280;7885;42.596;23.044;2023-04-09T02:55:21;93127.63;;;7.28;100.00
15568;BME280;7885;42.596;23.044;2023-04-09T02:57:48;93123.81;;;7.33;100.00
15568;BME280;7885;42.596;23.044;2023-04-09T03:00:15;93120.25;;;7.25;100.00
15568;BME280;7885;42.596;23.044;2023-04-09T03:02:42;93118.22;;;7.19;100.00
15568;BME280;7885;42.596;23.044;2023-04-09T03:05:08;93108.97;;;7.20;100.00
15568;BME280;7885;42.596;23.044;2023-04-09T03:07:36;93119.09;;;7.26;100.00
15568;BME280;7885;42.596;23.044;2023-04-09T03:10:04;93104.34;;;7.20;100.00
15568;BME280;7885;42.596;23.044;2023-04-09T03:12:32;93098.19;;;7.23;100.00
15568;BME280;7885;42.596;23.044;2023-04-09T03:14:59;93107.94;;;7.31;100.00
15568;BME280;7885;42.596;23.044;2023-04-09T03:17:26;93110.31;;;7.36;100.00
15568;BME280;7885;42.596;23.044;2023-04-09T03:19:56;93103.00;;;7.37;100.00
15568;BME280;7885;42.596;23.044;2023-04-09T03:22:23;93114.19;;;7.35;100.00
15568;BME280;7885;42.596;23.044;2023-04-09T03:24:50;93109.19;;;7.37;100.00
15568;BME280;7885;42.596;23.044;2023-04-09T03:27:19;93107.56;;;7.33;100.00
15568;BME280;7885;42.596;23.044;2023-04-09T03:29:45;93101.72;;;7.27;100.00
15568;BME280;7885;42.596;23.044;2023-04-09T03:32:12;93116.81;;;7.28;100.00
15568;BME280;7885;42.596;23.044;2023-04-09T03:34:39;93112.56;;;7.27;100.00
15568;BME280;7885;42.596;23.044;2023-04-09T03:37:06;93111.25;;;7.18;100.00
15568;BME280;7885;42.596;23.044;2023-04-09T03:39:33;93111.84;;;7.04;100.00
15568;BME280;7885;42.596;23.044;2023-04-09T03:42:00;93108.78;;;7.05;100.00
15568;BME280;7885;42.596;23.044;2023-04-09T03:44:28;93101.66;;;6.94;100.00
15568;BME280;7885;42.596;23.044;2023-04-09T03:46:55;93115.19;;;6.94;100.00
15568;BME280;7885;42.596;23.044;2023-04-09T03:49:22;93100.84;;;6.90;100.00
15568;BME280;7885;42.596;23.044;2023-04-09T03:51:49;93096.13;;;6.83;100.00
15568;BME280;7885;42.596;23.044;2023-04-09T03:54:16;93103.25;;;6.95;100.00
15568;BME280;7885;42.596;23.044;2023-04-09T03:56:42;93114.41;;;6.93;100.00
15568;BME280;7885;42.596;23.044;2023-04-09T03:59:09;93091.03;;;6.78;100.00
15568;BME280;7885;42.596;23.044;2023-04-09T04:01:37;93111.66;;;6.90;100.00
15568;BME280;7885;42.596;23.044;2023-04-09T04:04:04;93118.25;;;6.89;100.00
15568;BME280;7885;42.596;23.044;2023-04-09T04:06:32;93107.56;;;6.73;100.00
15568;BME280;7885;42.596;23.044;2023-04-09T04:08:59;93117.56;;;6.69;100.00
15568;BME280;7885;42.596;23.044;2023-04-09T04:11:26;93124.44;;;6.63;100.00
15568;BME280;7885;42.596;23.044;2023-04-09T04:13:54;93098.59;;;6.39;100.00
15568;BME280;7885;42.596;23.044;2023-04-09T04:16:21;93128.09;;;6.48;100.00
15568;BME280;7885;42.596;23.044;2023-04-09T04:18:49;93122.25;;;6.46;100.00
15568;BME280;7885;42.596;23.044;2023-04-09T04:21:16;93125.50;;;6.58;100.00
15568;BME280;7885;42.596;23.044;2023-04-09T04:23:43;93118.63;;;6.61;100.00
15568;BME280;7885;42.596;23.044;2023-04-09T04:26:10;93122.56;;;6.67;100.00
15568;BME280;7885;42.596;23.044;2023-04-09T04:28:37;93125.41;;;6.78;100.00
15568;BME280;7885;42.596;23.044;2023-04-09T04:31:06;93106.00;;;6.69;100.00
15568;BME280;7885;42.596;23.044;2023-04-09T04:33:34;93109.97;;;6.78;100.00
15568;BME280;7885;42.596;23.044;2023-04-09T04:36:06;93127.59;;;6.95;100.00
15568;BME280;7885;42.596;23.044;2023-04-09T04:38:33;93138.19;;;7.07;100.00
15568;BME280;7885;42.596;23.044;2023-04-09T04:41:00;93139.00;;;7.11;100.00
15568;BME280;7885;42.596;23.044;2023-04-09T04:43:27;93129.22;;;6.99;100.00
15568;BME280;7885;42.596;23.044;2023-04-09T04:45:54;93124.06;;;6.91;100.00
15568;BME280;7885;42.596;23.044;2023-04-09T04:48:21;93128.00;;;6.97;100.00
15568;BME280;7885;42.596;23.044;2023-04-09T04:50:55;93128.00;;;6.97;100.00
15568;BME280;7885;42.596;23.044;2023-04-09T04:53:23;93121.78;;;6.93;100.00
15568;BME280;7885;42.596;23.044;2023-04-09T04:55:50;93130.41;;;7.02;100.00
15568;BME280;7885;42.596;23.044;2023-04-09T04:58:17;93117.25;;;7.04;100.00
15568;BME280;7885;42.596;23.044;2023-04-09T05:00:44;93116.56;;;7.10;100.00
15568;BME280;7885;42.596;23.044;2023-04-09T05:03:11;93133.34;;;7.20;100.00
15568;BME280;7885;42.596;23.044;2023-04-09T05:05:38;93123.59;;;7.15;100.00
15568;BME280;7885;42.596;23.044;2023-04-09T05:08:05;93118.59;;;7.17;100.00
15568;BME280;7885;42.596;23.044;2023-04-09T05:10:33;93127.28;;;7.30;100.00
15568;BME280;7885;42.596;23.044;2023-04-09T05:13:02;93107.50;;;7.26;100.00
15568;BME280;7885;42.596;23.044;2023-04-09T05:15:29;93118.53;;;7.43;100.00
15568;BME280;7885;42.596;23.044;2023-04-09T05:17:56;93121.31;;;7.50;100.00
15568;BME280;7885;42.596;23.044;2023-04-09T05:20:24;93126.47;;;7.62;100.00
15568;BME280;7885;42.596;23.044;2023-04-09T05:22:52;93113.34;;;7.65;100.00
15568;BME280;7885;42.596;23.044;2023-04-09T05:25:19;93127.41;;;7.77;100.00
15568;BME280;7885;42.596;23.044;2023-04-09T05:27:47;93083.16;;;7.62;100.00
15568;BME280;7885;42.596;23.044;2023-04-09T05:30:14;93131.06;;;7.92;99.86
15568;BME280;7885;42.596;23.044;2023-04-09T05:32:43;93118.31;;;7.96;100.00
15568;BME280;7885;42.596;23.044;2023-04-09T05:35:10;93130.03;;;8.07;99.46
15568;BME280;7885;42.596;23.044;2023-04-09T05:37:37;93127.06;;;8.19;99.85
15568;BME280;7885;42.596;23.044;2023-04-09T05:40:04;93135.69;;;8.28;98.57
15568;BME280;7885;42.596;23.044;2023-04-09T05:42:31;93116.38;;;8.33;96.99
15568;BME280;7885;42.596;23.044;2023-04-09T05:45:00;93129.69;;;8.52;98.05
15568;BME280;7885;42.596;23.044;2023-04-09T05:47:26;93128.59;;;8.60;97.10
15568;BME280;7885;42.596;23.044;2023-04-09T05:49:53;93136.81;;;8.75;96.91
15568;BME280;7885;42.596;23.044;2023-04-09T05:52:21;93138.41;;;8.83;94.85
15568;BME280;7885;42.596;23.044;2023-04-09T05:54:47;93137.72;;;8.89;95.06
15568;BME280;7885;42.596;23.044;2023-04-09T05:57:14;93135.44;;;8.98;94.43
15568;BME280;7885;42.596;23.044;2023-04-09T05:59:41;93137.75;;;9.00;94.76
15568;BME280;7885;42.596;23.044;2023-04-09T06:02:09;93151.06;;;9.19;94.79
15568;BME280;7885;42.596;23.044;2023-04-09T06:04:36;93141.41;;;9.25;93.96
15568;BME280;7885;42.596;23.044;2023-04-09T06:07:03;93148.81;;;9.32;93.20
15568;BME280;7885;42.596;23.044;2023-04-09T06:09:30;93149.22;;;9.37;92.49
15568;BME280;7885;42.596;23.044;2023-04-09T06:11:57;93141.84;;;9.34;92.54
15568;BME280;7885;42.596;23.044;2023-04-09T06:14:37;93153.56;;;9.52;92.62
15568;BME280;7885;42.596;23.044;2023-04-09T06:17:04;93148.94;;;9.60;92.42
15568;BME280;7885;42.596;23.044;2023-04-09T06:19:33;93159.88;;;9.78;92.41
15568;BME280;7885;42.596;23.044;2023-04-09T06:21:59;93151.38;;;9.93;92.56
15568;BME280;7885;42.596;23.044;2023-04-09T06:24:26;93160.00;;;10.13;91.11
15568;BME280;7885;42.596;23.044;2023-04-09T06:26:53;93159.25;;;10.27;90.39
15568;BME280;7885;42.596;23.044;2023-04-09T06:29:20;93160.06;;;10.31;89.84
15568;BME280;7885;42.596;23.044;2023-04-09T06:31:47;93168.63;;;10.43;89.80
15568;BME280;7885;42.596;23.044;2023-04-09T06:34:14;93162.03;;;10.48;87.89
15568;BME280;7885;42.596;23.044;2023-04-09T06:36:42;93163.94;;;10.44;87.05
15568;BME280;7885;42.596;23.044;2023-04-09T06:39:09;93174.06;;;10.50;87.42
15568;BME280;7885;42.596;23.044;2023-04-09T06:41:36;93167.06;;;10.46;87.12
15568;BME280;7885;42.596;23.044;2023-04-09T06:44:02;93165.50;;;10.45;86.33
15568;BME280;7885;42.596;23.044;2023-04-09T06:46:29;93163.56;;;10.52;86.63
15568;BME280;7885;42.596;23.044;2023-04-09T06:48:56;93159.31;;;10.51;85.87
15568;BME280;7885;42.596;23.044;2023-04-09T06:51:23;93156.97;;;10.57;85.43
15568;BME280;7885;42.596;23.044;2023-04-09T06:53:51;93165.50;;;10.62;85.72
15568;BME280;7885;42.596;23.044;2023-04-09T06:56:18;93162.41;;;10.78;85.16
15568;BME280;7885;42.596;23.044;2023-04-09T06:58:45;93180.28;;;10.83;84.04
15568;BME280;7885;42.596;23.044;2023-04-09T07:01:12;93165.50;;;10.84;83.89
15568;BME280;7885;42.596;23.044;2023-04-09T07:03:39;93167.84;;;10.89;83.32
15568;BME280;7885;42.596;23.044;2023-04-09T07:06:06;93170.19;;;10.90;84.74
15568;BME280;7885;42.596;23.044;2023-04-09T07:08:33;93167.06;;;10.88;84.13
15568;BME280;7885;42.596;23.044;2023-04-09T07:11:01;93170.97;;;10.87;83.95
15568;BME280;7885;42.596;23.044;2023-04-09T07:13:28;93159.28;;;10.65;84.16
15568;BME280;7885;42.596;23.044;2023-04-09T07:15:55;93167.06;;;10.63;84.51
15568;BME280;7885;42.596;23.044;2023-04-09T07:18:22;93163.97;;;10.69;85.47
15568;BME280;7885;42.596;23.044;2023-04-09T07:20:53;93171.75;;;10.77;85.40
15568;BME280;7885;42.596;23.044;2023-04-09T07:23:20;93171.38;;;10.86;84.93
15568;BME280;7885;42.596;23.044;2023-04-09T07:25:47;93170.97;;;10.84;85.41
15568;BME280;7885;42.596;23.044;2023-04-09T07:28:15;93165.13;;;10.92;85.17
15568;BME280;7885;42.596;23.044;2023-04-09T07:30:42;93172.53;;;10.92;85.25
15568;BME280;7885;42.596;23.044;2023-04-09T07:33:10;93162.41;;;10.92;84.23
15568;BME280;7885;42.596;23.044;2023-04-09T07:35:37;93168.22;;;10.91;82.03
15568;BME280;7885;42.596;23.044;2023-04-09T07:38:04;93174.09;;;10.93;82.83
15568;BME280;7885;42.596;23.044;2023-04-09T07:40:33;93169.78;;;11.20;84.96
15568;BME280;7885;42.596;23.044;2023-04-09T07:43:01;93180.97;;;11.64;83.66
15568;BME280;7885;42.596;23.044;2023-04-09T07:45:29;93180.94;;;11.79;81.46
15568;BME280;7885;42.596;23.044;2023-04-09T07:47:56;93191.00;;;11.96;80.85
15568;BME280;7885;42.596;23.044;2023-04-09T07:50:23;93182.41;;;12.01;79.49
15568;BME280;7885;42.596;23.044;2023-04-09T07:52:49;93183.13;;;12.12;79.14
15568;BME280;7885;42.596;23.044;2023-04-09T07:55:16;93182.63;;;12.31;77.98
15568;BME280;7885;42.596;23.044;2023-04-09T07:57:44;93176.69;;;12.50;78.08
15568;BME280;7885;42.596;23.044;2023-04-09T08:00:13;93191.81;;;12.58;75.76
15568;BME280;7885;42.596;23.044;2023-04-09T08:02:41;93187.41;;;12.79;75.30
15568;BME280;7885;42.596;23.044;2023-04-09T08:05:08;93183.34;;;12.97;75.04
15568;BME280;7885;42.596;23.044;2023-04-09T08:07:35;93188.72;;;13.15;75.42
15568;BME280;7885;42.596;23.044;2023-04-09T08:10:02;93184.22;;;13.35;74.86
15568;BME280;7885;42.596;23.044;2023-04-09T08:12:29;93181.28;;;13.56;73.79
15568;BME280;7885;42.596;23.044;2023-04-09T08:14:56;93182.03;;;13.60;70.50
15568;BME280;7885;42.596;23.044;2023-04-09T08:17:23;93190.53;;;14.37;69.26
15568;BME280;7885;42.596;23.044;2023-04-09T08:19:51;93191.69;;;15.20;62.71
15568;BME280;7885;42.596;23.044;2023-04-09T08:22:18;93190.16;;;15.15;63.76
15568;BME280;7885;42.596;23.044;2023-04-09T08:24:50;93176.72;;;14.75;65.90
15568;BME280;7885;42.596;23.044;2023-04-09T08:27:16;93172.19;;;14.00;68.09
15568;BME280;7885;42.596;23.044;2023-04-09T08:29:43;93178.63;;;14.17;70.88
15568;BME280;7885;42.596;23.044;2023-04-09T08:32:10;93169.09;;;13.98;71.79
15568;BME280;7885;42.596;23.044;2023-04-09T08:34:37;93175.88;;;14.17;69.93
15568;BME280;7885;42.596;23.044;2023-04-09T08:37:05;93174.41;;;14.12;70.58
15568;BME280;7885;42.596;23.044;2023-04-09T08:39:32;93174.47;;;14.39;70.07
15568;BME280;7885;42.596;23.044;2023-04-09T08:42:00;93174.69;;;14.79;69.87
15568;BME280;7885;42.596;23.044;2023-04-09T08:44:28;93167.03;;;15.40;68.52
15568;BME280;7885;42.596;23.044;2023-04-09T08:46:55;93165.69;;;17.83;62.97
15568;BME280;7885;42.596;23.044;2023-04-09T08:49:23;93158.22;;;20.66;53.14
15568;BME280;7885;42.596;23.044;2023-04-09T08:51:50;93157.47;;;22.04;47.40
15568;BME280;7885;42.596;23.044;2023-04-09T08:54:18;93143.75;;;22.28;46.51
15568;BME280;7885;42.596;23.044;2023-04-09T08:56:45;93157.88;;;21.75;46.44
15568;BME280;7885;42.596;23.044;2023-04-09T08:59:14;93138.59;;;21.53;45.28
15568;BME280;7885;42.596;23.044;2023-04-09T09:01:42;93153.59;;;20.63;47.24
15568;BME280;7885;42.596;23.044;2023-04-09T09:04:11;93138.56;;;19.52;48.12
15568;BME280;7885;42.596;23.044;2023-04-09T09:06:39;93134.69;;;18.49;51.47
15568;BME280;7885;42.596;23.044;2023-04-09T09:09:07;93137.81;;;17.81;55.66
15568;BME280;7885;42.596;23.044;2023-04-09T09:11:37;93140.91;;;17.05;55.65
15568;BME280;7885;42.596;23.044;2023-04-09T09:14:05;93119.56;;;16.05;57.79
15568;BME280;7885;42.596;23.044;2023-04-09T09:16:33;93143.97;;;15.80;61.04
15568;BME280;7885;42.596;23.044;2023-04-09T09:19:04;93135.31;;;15.39;61.68
15568;BME280;7885;42.596;23.044;2023-04-09T09:21:31;93141.34;;;15.07;62.42
15568;BME280;7885;42.596;23.044;2023-04-09T09:23:59;93137.69;;;14.67;61.56
15568;BME280;7885;42.596;23.044;2023-04-09T09:26:27;93121.28;;;14.10;61.87
15568;BME280;7885;42.596;23.044;2023-04-09T09:28:56;93128.22;;;13.84;64.11
15568;BME280;7885;42.596;23.044;2023-04-09T09:31:24;93131.25;;;13.59;66.03
15568;BME280;7885;42.596;23.044;2023-04-09T09:33:51;93137.72;;;13.39;67.40
15568;BME280;7885;42.596;23.044;2023-04-09T09:36:32;93129.78;;;12.62;71.49
15568;BME280;7885;42.596;23.044;2023-04-09T09:39:00;93132.69;;;12.38;70.68
15568;BME280;7885;42.596;23.044;2023-04-09T09:41:34;93129.69;;;12.18;71.09
15568;BME280;7885;42.596;23.044;2023-04-09T09:44:03;93132.38;;;12.25;71.18
15568;BME280;7885;42.596;23.044;2023-04-09T09:46:34;93125.03;;;13.55;68.59
15568;BME280;7885;42.596;23.044;2023-04-09T09:49:01;93116.34;;;14.82;64.30
15568;BME280;7885;42.596;23.044;2023-04-09T09:51:27;93128.34;;;15.57;60.57
15568;BME280;7885;42.596;23.044;2023-04-09T09:53:57;93115.34;;;16.01;59.30
15568;BME280;7885;42.596;23.044;2023-04-09T09:56:29;93115.63;;;15.67;61.03
15568;BME280;7885;42.596;23.044;2023-04-09T09:59:05;93117.03;;;15.32;60.63
15568;BME280;7885;42.596;23.044;2023-04-09T10:01:32;93118.22;;;15.08;63.37
15568;BME280;7885;42.596;23.044;2023-04-09T10:04:01;93102.00;;;14.47;62.51
15568;BME280;7885;42.596;23.044;2023-04-09T10:06:30;93099.72;;;14.12;64.32
15568;BME280;7885;42.596;23.044;2023-04-09T10:09:01;93121.06;;;13.94;65.01
15568;BME280;7885;42.596;23.044;2023-04-09T10:11:30;93109.22;;;13.74;65.42
15568;BME280;7885;42.596;23.044;2023-04-09T10:13:58;93124.97;;;13.62;66.21
15568;BME280;7885;42.596;23.044;2023-04-09T10:16:27;93119.72;;;13.41;65.75
15568;BME280;7885;42.596;23.044;2023-04-09T10:18:54;93117.28;;;13.50;67.05
15568;BME280;7885;42.596;23.044;2023-04-09T10:21:32;93110.84;;;13.34;64.80
15568;BME280;7885;42.596;23.044;2023-04-09T10:24:03;93099.59;;;13.25;64.52
15568;BME280;7885;42.596;23.044;2023-04-09T10:26:32;93119.69;;;13.45;64.12
15568;BME280;7885;42.596;23.044;2023-04-09T10:29:04;93124.97;;;13.62;64.05
15568;BME280;7885;42.596;23.044;2023-04-09T10:31:50;93115.53;;;13.67;63.54
15568;BME280;7885;42.596;23.044;2023-04-09T10:34:19;93096.97;;;13.51;63.43
15568;BME280;7885;42.596;23.044;2023-04-09T10:36:50;93111.00;;;13.53;64.71
15568;BME280;7885;42.596;23.044;2023-04-09T10:39:18;93119.50;;;13.62;65.78
15568;BME280;7885;42.596;23.044;2023-04-09T10:41:47;93111.75;;;13.57;65.98
15568;BME280;7885;42.596;23.044;2023-04-09T10:44:21;93113.75;;;13.53;66.04
15568;BME280;7885;42.596;23.044;2023-04-09T10:46:51;93122.69;;;13.57;65.66
15568;BME280;7885;42.596;23.044;2023-04-09T10:49:19;93125.94;;;13.45;64.89
15568;BME280;7885;42.596;23.044;2023-04-09T10:51:49;93116.13;;;13.10;67.27
15568;BME280;7885;42.596;23.044;2023-04-09T10:54:36;93118.47;;;13.12;65.36
15568;BME280;7885;42.596;23.044;2023-04-09T10:57:13;93108.44;;;13.39;67.01
15568;BME280;7885;42.596;23.044;2023-04-09T10:59:42;93115.75;;;13.49;66.32
15568;BME280;7885;42.596;23.044;2023-04-09T11:05:18;93107.66;;;13.73;65.66
15568;BME280;7885;42.596;23.044;2023-04-09T11:07:53;93110.84;;;13.68;64.87
15568;BME280;7885;42.596;23.044;2023-04-09T11:10:23;93109.56;;;13.76;64.85
15568;BME280;7885;42.596;23.044;2023-04-09T11:12:50;93106.44;;;13.77;65.73
15568;BME280;7885;42.596;23.044;2023-04-09T11:15:18;93102.19;;;13.73;65.28
15568;BME280;7885;42.596;23.044;2023-04-09T11:17:47;93102.91;;;13.77;64.94
15568;BME280;7885;42.596;23.044;2023-04-09T11:20:16;93106.03;;;13.79;65.20
15568;BME280;7885;42.596;23.044;2023-04-09T11:22:45;93097.34;;;13.84;65.44
15568;BME280;7885;42.596;23.044;2023-04-09T11:25:17;93100.56;;;13.79;64.51
15568;BME280;7885;42.596;23.044;2023-04-09T11:27:44;93092.19;;;13.59;61.60
15568;BME280;7885;42.596;23.044;2023-04-09T11:30:12;93112.72;;;13.40;62.68
15568;BME280;7885;42.596;23.044;2023-04-09T11:32:39;93104.28;;;13.24;60.92
15568;BME280;7885;42.596;23.044;2023-04-09T11:35:12;93094.31;;;13.03;62.92
15568;BME280;7885;42.596;23.044;2023-04-09T11:37:40;93109.69;;;12.87;62.81
15568;BME280;7885;42.596;23.044;2023-04-09T11:40:13;93091.50;;;12.70;63.00
15568;BME280;7885;42.596;23.044;2023-04-09T11:42:41;93102.50;;;12.59;62.93
15568;BME280;7885;42.596;23.044;2023-04-09T11:45:09;93106.00;;;12.59;62.43
15568;BME280;7885;42.596;23.044;2023-04-09T11:47:36;93100.59;;;12.52;63.34
15568;BME280;7885;42.596;23.044;2023-04-09T11:50:05;93096.78;;;12.43;64.39
15568;BME280;7885;42.596;23.044;2023-04-09T11:52:34;93092.97;;;12.33;64.47
15568;BME280;7885;42.596;23.044;2023-04-09T11:55:01;93077.28;;;11.89;63.14
15568;BME280;7885;42.596;23.044;2023-04-09T11:57:44;93092.09;;;11.85;66.63
15568;BME280;7885;42.596;23.044;2023-04-09T12:00:15;93101.56;;;11.48;66.26
15568;BME280;7885;42.596;23.044;2023-04-09T12:02:44;93099.34;;;11.15;67.18
15568;BME280;7885;42.596;23.044;2023-04-09T12:05:21;93108.75;;;10.93;68.95
15568;BME280;7885;42.596;23.044;2023-04-09T12:07:49;93105.25;;;10.82;70.13
15568;BME280;7885;42.596;23.044;2023-04-09T12:10:17;93101.75;;;10.78;70.49
15568;BME280;7885;42.596;23.044;2023-04-09T12:12:44;93087.34;;;10.70;72.13
15568;BME280;7885;42.596;23.044;2023-04-09T12:15:23;93097.03;;;10.99;75.36
15568;BME280;7885;42.596;23.044;2023-04-09T12:17:53;93088.47;;;11.08;72.26
15568;BME280;7885;42.596;23.044;2023-04-09T12:20:30;93100.88;;;11.30;74.54
15568;BME280;7885;42.596;23.044;2023-04-09T12:23:00;93087.19;;;11.41;75.64
15568;BME280;7885;42.596;23.044;2023-04-09T12:25:28;93106.13;;;11.83;77.98
15568;BME280;7885;42.596;23.044;2023-04-09T12:27:55;93094.34;;;11.97;78.74
15568;BME280;7885;42.596;23.044;2023-04-09T12:30:22;93092.69;;;12.13;77.18
15568;BME280;7885;42.596;23.044;2023-04-09T12:32:51;93088.69;;;12.29;78.61
15568;BME280;7885;42.596;23.044;2023-04-09T12:35:18;93101.09;;;12.40;79.17
15568;BME280;7885;42.596;23.044;2023-04-09T12:37:45;93089.78;;;12.38;81.70
15568;BME280;7885;42.596;23.044;2023-04-09T12:40:13;93087.88;;;12.35;82.18
15568;BME280;7885;42.596;23.044;2023-04-09T12:42:40;93087.91;;;12.32;82.34
15568;BME280;7885;42.596;23.044;2023-04-09T12:45:09;93099.84;;;12.48;83.26
15568;BME280;7885;42.596;23.044;2023-04-09T12:47:36;93092.41;;;12.52;83.26
15568;BME280;7885;42.596;23.044;2023-04-09T12:50:06;93084.25;;;12.49;83.71
15568;BME280;7885;42.596;23.044;2023-04-09T12:52:33;93093.97;;;12.53;83.96
15568;BME280;7885;42.596;23.044;2023-04-09T12:55:00;93091.31;;;12.46;84.15
15568;BME280;7885;42.596;23.044;2023-04-09T12:57:29;93086.25;;;12.41;85.38
15568;BME280;7885;42.596;23.044;2023-04-09T12:59:56;93087.47;;;12.40;85.60
15568;BME280;7885;42.596;23.044;2023-04-09T13:02:23;93076.25;;;12.24;86.34
15568;BME280;7885;42.596;23.044;2023-04-09T13:04:50;93070.78;;;12.24;86.48
15568;BME280;7885;42.596;23.044;2023-04-09T13:07:18;93086.44;;;12.20;86.82
15568;BME280;7885;42.596;23.044;2023-04-09T13:09:45;93074.41;;;12.07;84.54